Newdale, ID (83436)

7:28 AM MDT on July 24, 2016 (GMT -0600)
Parkinson Seed Farm, Saint Anthony | | Change Station

Elev 5358 ft 43.94 °N, 111.48 °W | Updated 60 seconds ago

Clear
Clear
45.7 °F
Feels Like 46 °F
N
0.9
Wind Variable Wind from NNW
Gusts 2.0 mph

Today
High -- | Low -- °F
--% Chance of Precip.
Yesterday
High -- | Low -- °F
Precip. -- in
Pressure 30.09 in
Visibility 10.0 miles
Clouds Clear
Windchill 46 °F
Dew Point 32 °F
Humidity 60%
Rainfall 0.00 in
Snow Depth Not available.
6:06 AM 8:57 PM
Waning Gibbous, 76% visible
METAR KRXE 241253Z AUTO 06006KT 10SM CLR 08/02 A3019 RMK AO2 SLP189 T00830022
Pressure 30.09 in
Visibility 10.0 miles
Clouds Clear
Windchill 46 °F
Dew Point 32 °F
Humidity 60%
Rainfall 0.00 in
Snow Depth Not available.
6:06 AM 8:57 PM
Waning Gibbous, 76% visible
METAR KRXE 241253Z AUTO 06006KT 10SM CLR 08/02 A3019 RMK AO2 SLP189 T00830022

10-Day Weather Forecast

Almanac

Astronomy

Jul. 24, 2016 Rise Set
Actual Time
Civil Twilight
Nautical Twilight
Astronomical Twilight
Moon
Length of Visible Light
Length of Day
Tomorrow will be .
, % of the Moon is Illuminated

Today's Extremes

State Highs State Lows

Community

WunderPhotos

Upload Photos

1,927,057 photos uploaded!

WunderBlog® & News

Nearby

Air Quality

  Air Quality AQ Index Pollutant
Not available.

Snow Depth

Station Depth Elevation

Earthquake Activity

City Distance Mag. Time & Date
Minimum magnitude displayed is 2.5.

Coastal Water Temperatures

Place Temperature

Stations

Nearby Weather Stations

Station Location Temp. Windchill Dew Point Humidity Wind Precip. Elev Updated Type
                   

Watches & Warnings

There are currently no watches in effect.